Time;durP1;ratioP1;P1;durP2;ratioP2;P2;SDS_P1;SDS_P2;PMS_P1;PMS_P2;Temp;Humidity;BMP_temperature;BMP_pressure;BME280_temperature;BME280_humidity;BME280_pressure;Samples;Min_cycle;Max_cycle;Signal;HPM_P1;HPM_P2
2022/05/19 00:01:20;;;;;;;4.93;1.98;;;;;;;7.38;88.29;95677.50;5031074;28;20193;-72
2022/05/19 00:03:47;;;;;;;2.85;1.88;;;;;;;7.41;87.87;95679.59;5029065;28;20228;-72
2022/05/19 00:06:16;;;;;;;4.07;1.98;;;;;;;7.41;87.71;95676.91;5019003;28;20659;-73
2022/05/19 00:08:43;;;;;;;1.83;1.40;;;;;;;7.48;87.21;95680.09;5018412;28;20303;-72
2022/05/19 00:11:14;;;;;;;3.53;1.92;;;;;;;7.44;87.11;95679.06;5024217;28;20201;-73
2022/05/19 00:13:41;;;;;;;3.50;1.95;;;;;;;7.40;87.14;95675.31;5024729;28;20197;-72
2022/05/19 00:16:09;;;;;;;3.92;2.30;;;;;;;7.28;87.80;95680.25;5019123;28;20593;-73
2022/05/19 00:18:37;;;;;;;4.30;2.40;;;;;;;7.22;87.83;95676.00;5017895;28;20232;-73
2022/05/19 00:21:05;;;;;;;6.15;2.55;;;;;;;7.18;88.08;95675.75;5022261;28;20220;-72
2022/05/19 00:23:33;;;;;;;6.13;2.42;;;;;;;7.11;88.24;95686.81;5024799;28;20235;-73
2022/05/19 00:26:00;;;;;;;3.83;2.88;;;;;;;7.09;88.20;95678.25;5020892;28;20235;-72
2022/05/19 00:28:27;;;;;;;3.75;2.03;;;;;;;7.04;88.22;95675.56;5017572;28;20200;-71
2022/05/19 00:30:54;;;;;;;3.60;2.10;;;;;;;6.93;88.70;95678.59;5030724;28;20200;-72
2022/05/19 00:33:21;;;;;;;2.85;2.17;;;;;;;6.99;88.57;95678.28;5017582;28;20220;-72
2022/05/19 00:35:48;;;;;;;3.13;2.20;;;;;;;6.96;88.50;95683.44;5031469;28;20211;-72
2022/05/19 00:38:15;;;;;;;3.08;1.85;;;;;;;7.00;87.96;95679.88;5017267;28;20200;-72
2022/05/19 00:40:47;;;;;;;6.57;1.98;;;;;;;6.98;87.86;95694.72;5020318;28;20252;-71
2022/05/19 00:43:15;;;;;;;3.22;1.92;;;;;;;6.93;87.82;95692.06;5031531;28;20187;-73
2022/05/19 00:45:51;;;;;;;2.63;1.75;;;;;;;6.80;88.33;95693.50;5037950;28;20229;-72
2022/05/19 00:48:23;;;;;;;3.40;1.45;;;;;;;6.58;89.11;95693.03;5018633;28;20200;-72
2022/05/19 00:50:54;;;;;;;2.78;1.58;;;;;;;6.66;89.54;95701.38;5031158;28;20204;-72
2022/05/19 00:53:29;;;;;;;2.47;1.83;;;;;;;6.80;89.40;95696.19;5030610;28;20678;-72
2022/05/19 00:56:02;;;;;;;2.15;1.73;;;;;;;6.83;89.03;95700.22;5030920;28;20232;-72
2022/05/19 00:58:33;;;;;;;7.07;1.77;;;;;;;6.91;88.96;95700.44;5019984;28;20197;-72
2022/05/19 01:01:00;;;;;;;3.03;1.60;;;;;;;7.04;88.86;95699.81;5024760;28;20205;-73
2022/05/19 01:03:30;;;;;;;2.47;2.00;;;;;;;7.10;87.89;95703.28;5022734;28;20551;-72
2022/05/19 01:06:03;;;;;;;4.28;2.05;;;;;;;7.12;87.59;95710.00;5017440;28;20224;-72
2022/05/19 01:08:35;;;;;;;3.67;1.52;;;;;;;7.11;87.61;95719.16;5017541;28;20521;-72
2022/05/19 01:11:06;;;;;;;4.07;1.95;;;;;;;7.24;87.64;95709.66;5023611;28;20275;-72
2022/05/19 01:13:34;;;;;;;3.33;1.92;;;;;;;7.19;87.79;95716.97;5024585;28;20232;-72
2022/05/19 01:16:04;;;;;;;3.70;1.83;;;;;;;6.99;89.22;95724.06;5023797;28;20207;-72
2022/05/19 01:18:32;;;;;;;4.40;1.92;;;;;;;7.00;89.58;95717.59;5021141;28;20711;-72
2022/05/19 01:21:00;;;;;;;3.33;2.00;;;;;;;7.23;89.25;95712.63;5025747;28;20575;-73
2022/05/19 01:23:38;;;;;;;3.78;2.00;;;;;;;7.28;88.34;95720.69;5027809;28;20239;-73
2022/05/19 01:26:24;;;;;;;2.45;1.77;;;;;;;7.26;89.11;95722.84;5026018;28;20207;-72
2022/05/19 01:28:53;;;;;;;5.22;2.03;;;;;;;7.32;88.56;95719.84;5021918;28;20203;-72
2022/05/19 01:31:31;;;;;;;2.05;1.70;;;;;;;7.27;87.88;95719.06;5034298;28;20251;-73
2022/05/19 01:33:59;;;;;;;2.33;1.75;;;;;;;7.40;87.73;95721.94;5034106;28;20208;-72
2022/05/19 01:36:26;;;;;;;2.67;1.80;;;;;;;7.52;87.34;95718.88;5020799;28;20228;-72
2022/05/19 01:39:00;;;;;;;4.47;2.03;;;;;;;7.67;86.11;95720.66;5034078;28;20204;-72
2022/05/19 01:41:39;;;;;;;4.45;2.30;;;;;;;7.57;86.45;95716.16;5030543;28;20228;-72
2022/05/19 01:44:19;;;;;;;3.13;1.92;;;;;;;7.58;87.24;95727.75;5037581;28;20211;-72
2022/05/19 01:46:51;;;;;;;3.35;2.03;;;;;;;7.73;86.74;95720.34;5021532;28;20232;-72
2022/05/19 01:49:26;;;;;;;4.38;2.15;;;;;;;7.85;86.33;95723.47;5034219;28;20211;-73
2022/05/19 01:51:59;;;;;;;5.38;2.20;;;;;;;7.87;86.73;95725.09;5034114;28;20191;-73
2022/05/19 01:54:34;;;;;;;3.85;2.20;;;;;;;7.68;87.30;95728.47;5020956;28;20200;-73
2022/05/19 01:57:07;;;;;;;4.63;2.33;;;;;;;7.67;87.83;95729.56;5022887;28;20196;-73
2022/05/19 01:59:41;;;;;;;6.03;2.10;;;;;;;7.52;87.94;95735.06;5033744;28;20200;-73
2022/05/19 02:02:13;;;;;;;2.90;2.13;;;;;;;7.82;88.21;95734.03;5033886;28;20298;-73
2022/05/19 02:04:53;;;;;;;5.15;2.70;;;;;;;7.96;87.16;95729.59;5025875;28;20237;-72
2022/05/19 02:07:22;;;;;;;3.88;2.38;;;;;;;8.13;86.87;95734.56;5027440;28;20221;-73
2022/05/19 02:09:55;;;;;;;3.15;2.30;;;;;;;8.29;86.47;95732.53;5024339;28;20268;-73
2022/05/19 02:12:22;;;;;;;4.00;2.28;;;;;;;8.21;86.64;95732.03;5033413;28;20197;-72
2022/05/19 02:14:56;;;;;;;5.20;2.90;;;;;;;8.48;86.01;95736.91;5022710;28;20216;-72
2022/05/19 02:17:26;;;;;;;3.10;2.30;;;;;;;8.25;85.97;95737.69;5018187;28;20223;-72
2022/05/19 02:19:56;;;;;;;7.90;2.83;;;;;;;8.11;86.35;95736.72;5029439;28;20659;-74
2022/05/19 02:22:30;;;;;;;5.00;2.47;;;;;;;8.24;86.13;95735.25;5019905;28;20232;-72
2022/05/19 02:24:59;;;;;;;2.90;2.40;;;;;;;8.50;85.52;95745.53;5033130;28;20227;-72
2022/05/19 02:27:35;;;;;;;15.93;3.33;;;;;;;8.35;85.18;95734.91;5024343;28;20205;-71
2022/05/19 02:30:07;;;;;;;7.60;3.40;;;;;;;8.29;85.75;95736.03;5026820;28;20231;-72
2022/05/19 02:32:35;;;;;;;6.50;3.03;;;;;;;8.28;85.85;95730.91;5023995;28;20204;-73
2022/05/19 02:35:03;;;;;;;6.40;3.25;;;;;;;8.51;86.08;95747.16;5019961;28;20669;-73
2022/05/19 02:37:30;;;;;;;4.82;3.25;;;;;;;8.37;86.20;95734.63;5021043;28;20248;-72
2022/05/19 02:39:57;;;;;;;6.25;3.00;;;;;;;8.52;85.82;95743.38;5026507;28;20568;-72
2022/05/19 02:42:24;;;;;;;6.28;3.13;;;;;;;8.55;85.78;95740.09;5024447;28;20201;-73
2022/05/19 02:44:51;;;;;;;5.38;3.30;;;;;;;8.35;85.68;95743.00;5043922;28;20290;-72
2022/05/19 02:47:19;;;;;;;5.57;3.63;;;;;;;8.49;85.09;95741.22;5033051;28;20208;-72
2022/05/19 02:49:46;;;;;;;6.20;3.65;;;;;;;8.62;85.01;95742.44;5019566;28;20204;-72
2022/05/19 02:52:13;;;;;;;10.10;4.07;;;;;;;8.54;85.28;95738.47;5020442;28;20263;-72
2022/05/19 02:54:40;;;;;;;7.22;4.35;;;;;;;8.58;85.26;95741.41;5026255;28;20697;-73
2022/05/19 02:57:07;;;;;;;8.25;3.92;;;;;;;8.63;85.41;95733.25;5025628;28;20248;-72
2022/05/19 02:59:34;;;;;;;7.22;3.50;;;;;;;8.34;85.73;95744.09;5033043;28;20298;-72
2022/05/19 03:02:00;;;;;;;6.82;4.03;;;;;;;8.35;85.64;95743.00;5032472;28;20567;-72
2022/05/19 03:04:29;;;;;;;6.75;4.20;;;;;;;8.32;85.46;95746.28;5019180;28;20767;-72
2022/05/19 03:06:56;;;;;;;7.00;4.00;;;;;;;8.25;85.44;95748.47;5019857;28;20224;-73
2022/05/19 03:09:23;;;;;;;8.13;4.82;;;;;;;8.09;86.04;95744.31;5032505;28;20682;-73
2022/05/19 03:11:50;;;;;;;5.97;3.60;;;;;;;7.99;86.50;95749.81;5032314;28;20682;-72
2022/05/19 03:14:17;;;;;;;7.25;3.72;;;;;;;7.89;86.40;95744.50;5032479;28;20227;-73
2022/05/19 03:16:44;;;;;;;5.78;3.60;;;;;;;7.81;87.26;95749.41;5019731;28;20225;-73
2022/05/19 03:19:10;;;;;;;5.80;3.65;;;;;;;7.85;87.68;95750.44;5032780;28;20222;-72
2022/05/19 03:21:39;;;;;;;9.48;3.78;;;;;;;7.94;87.26;95747.13;5031987;28;20621;-73
2022/05/19 03:24:06;;;;;;;11.50;4.55;;;;;;;8.07;87.17;95746.47;5019800;28;20262;-73
2022/05/19 03:26:33;;;;;;;10.07;4.22;;;;;;;8.09;86.63;95747.00;5032737;28;20220;-72
2022/05/19 03:29:00;;;;;;;10.20;3.90;;;;;;;8.20;86.32;95746.63;5024466;28;20619;-73
2022/05/19 03:31:28;;;;;;;7.50;4.38;;;;;;;8.25;86.20;95759.28;5026131;28;20200;-72
2022/05/19 03:33:54;;;;;;;6.95;4.13;;;;;;;8.01;86.65;95758.41;5020544;28;20582;-73
2022/05/19 03:36:22;;;;;;;6.50;4.03;;;;;;;8.05;87.12;95760.28;5019884;28;20225;-71
2022/05/19 03:38:50;;;;;;;6.93;4.28;;;;;;;8.22;86.64;95773.31;5031145;28;20211;-72
2022/05/19 03:41:17;;;;;;;9.85;4.32;;;;;;;8.53;85.30;95771.97;5032236;28;20216;-72
2022/05/19 03:43:44;;;;;;;6.90;4.38;;;;;;;8.62;84.64;95779.44;5039482;28;20223;-72
2022/05/19 03:46:10;;;;;;;8.02;4.25;;;;;;;8.70;83.83;95770.72;5034943;28;20244;-73
2022/05/19 03:48:39;;;;;;;10.88;4.35;;;;;;;8.81;83.89;95777.63;5022107;28;20708;-72
2022/05/19 03:51:11;;;;;;;9.05;4.45;;;;;;;8.73;83.79;95780.97;5025921;28;20236;-72
2022/05/19 03:53:38;;;;;;;7.88;3.97;;;;;;;8.79;84.23;95790.59;5022478;28;20204;-72
2022/05/19 03:56:06;;;;;;;7.03;4.35;;;;;;;8.81;83.46;95783.03;5032044;28;20209;-72
2022/05/19 03:58:34;;;;;;;8.00;3.60;;;;;;;8.95;83.94;95794.75;5020214;28;20209;-70
2022/05/19 04:01:00;;;;;;;7.28;4.13;;;;;;;8.82;83.25;95792.75;5024955;28;20634;-70
2022/05/19 04:03:27;;;;;;;6.80;4.53;;;;;;;8.53;84.37;95808.97;5023986;28;20220;-70
2022/05/19 04:05:54;;;;;;;10.27;5.88;;;;;;;8.54;84.81;95800.59;5012058;28;20456;-70
2022/05/19 04:08:21;;;;;;;14.52;5.63;;;;;;;8.64;84.43;95798.88;5023657;28;20196;-70
2022/05/19 04:10:48;;;;;;;7.05;3.95;;;;;;;8.65;83.92;95800.47;5018256;28;20204;-71
2022/05/19 04:13:16;;;;;;;14.32;5.18;;;;;;;8.62;84.70;95803.75;5018636;28;20707;-71
2022/05/19 04:15:43;;;;;;;10.57;5.07;;;;;;;8.88;84.52;95799.72;5012185;28;20334;-71
2022/05/19 04:18:11;;;;;;;8.77;4.93;;;;;;;9.03;83.52;95799.50;5024364;28;20208;-70
2022/05/19 04:20:37;;;;;;;10.98;4.35;;;;;;;9.14;82.12;95797.50;5024378;28;20232;-70
2022/05/19 04:23:04;;;;;;;6.47;4.57;;;;;;;9.25;82.20;95799.78;5023402;28;20621;-71
2022/05/19 04:25:32;;;;;;;11.40;3.80;;;;;;;9.18;82.11;95807.44;5018505;28;20228;-71
2022/05/19 04:27:59;;;;;;;6.28;4.10;;;;;;;9.15;82.60;95810.75;5018070;28;20231;-71
2022/05/19 04:30:28;;;;;;;8.20;4.80;;;;;;;9.13;83.07;95804.00;5023901;28;20263;-70
2022/05/19 04:32:55;;;;;;;6.32;3.72;;;;;;;9.07;83.34;95807.84;5024711;28;20220;-70
2022/05/19 04:35:22;;;;;;;8.70;3.75;;;;;;;9.06;83.18;95809.75;5019092;28;20200;-70
2022/05/19 04:37:49;;;;;;;7.00;4.13;;;;;;;8.25;84.83;95812.44;5030440;28;20223;-70
2022/05/19 04:40:19;;;;;;;7.15;4.90;;;;;;;8.29;84.29;95818.91;5030680;28;20678;-71
2022/05/19 04:42:46;;;;;;;14.25;5.10;;;;;;;8.07;85.08;95816.63;5029417;28;20212;-72
2022/05/19 04:45:15;;;;;;;9.57;4.15;;;;;;;8.26;86.04;95814.88;5023198;28;20243;-72
2022/05/19 04:47:44;;;;;;;7.57;4.35;;;;;;;8.54;85.48;95816.81;5025842;28;20250;-72
2022/05/19 04:50:11;;;;;;;7.88;4.78;;;;;;;8.66;84.01;95818.31;5021493;28;20208;-72
2022/05/19 04:52:39;;;;;;;8.25;4.20;;;;;;;8.91;85.67;95820.72;5024715;28;20342;-73
2022/05/19 04:55:07;;;;;;;7.75;4.20;;;;;;;9.21;84.56;95806.84;5025214;28;20207;-75
2022/05/19 04:57:34;;;;;;;7.20;4.35;;;;;;;9.60;82.05;95817.44;5029664;28;20201;-73
2022/05/19 05:00:01;;;;;;;7.72;4.70;;;;;;;9.74;82.90;95817.50;5021059;28;20228;-74
2022/05/19 05:02:28;;;;;;;6.68;3.78;;;;;;;9.86;80.98;95815.16;5024257;28;20224;-72
2022/05/19 05:04:58;;;;;;;8.63;5.18;;;;;;;9.96;80.35;95817.72;5020646;28;20211;-72
2022/05/19 05:07:25;;;;;;;7.65;4.68;;;;;;;9.89;80.73;95820.00;5029284;28;20192;-71
2022/05/19 05:09:52;;;;;;;11.20;5.57;;;;;;;10.07;80.49;95828.38;5030117;28;20258;-74
2022/05/19 05:12:19;;;;;;;5.93;4.07;;;;;;;9.73;80.66;95826.72;5017497;28;20231;-73
2022/05/19 05:14:46;;;;;;;7.68;4.50;;;;;;;10.12;81.85;95831.81;5019753;28;20227;-73
2022/05/19 05:17:13;;;;;;;10.10;5.88;;;;;;;10.64;79.78;95830.72;5027120;28;20732;-72
2022/05/19 05:19:40;;;;;;;14.10;6.07;;;;;;;11.05;79.16;95832.69;5029843;28;20483;-74
2022/05/19 05:22:09;;;;;;;10.32;5.78;;;;;;;11.05;75.51;95824.53;5016310;28;20677;-72
2022/05/19 05:24:36;;;;;;;10.68;5.80;;;;;;;11.16;76.42;95819.72;5018844;28;20228;-72
2022/05/19 05:27:05;;;;;;;9.20;5.05;;;;;;;11.03;75.99;95821.31;5028251;28;20286;-74
2022/05/19 05:29:32;;;;;;;11.43;4.97;;;;;;;11.21;75.67;95828.53;5018484;28;20578;-75
2022/05/19 05:31:58;;;;;;;6.90;5.05;;;;;;;11.51;77.71;95826.31;5024035;28;20299;-74
2022/05/19 05:34:25;;;;;;;8.90;5.43;;;;;;;11.95;75.02;95815.59;5010662;28;20610;-71
2022/05/19 05:36:53;;;;;;;8.75;5.30;;;;;;;12.12;73.19;95830.44;5022232;28;20201;-73
2022/05/19 05:39:21;;;;;;;8.98;5.25;;;;;;;12.42;72.75;95826.97;5023697;28;20224;-73
2022/05/19 05:41:52;;;;;;;26.70;9.82;;;;;;;12.90;71.66;95826.28;5017144;28;20569;-74
2022/05/19 05:44:19;;;;;;;10.68;5.55;;;;;;;13.25;69.94;95825.38;5041353;28;20234;-74
2022/05/19 05:46:46;;;;;;;14.05;5.75;;;;;;;14.30;67.33;95817.03;5030068;28;20228;-74
2022/05/19 05:49:13;;;;;;;12.38;5.43;;;;;;;14.82;65.71;95815.03;5016827;28;20209;-72
2022/05/19 05:51:40;;;;;;;26.10;12.60;;;;;;;15.14;65.21;95812.84;5022620;28;20566;-72
2022/05/19 05:54:10;;;;;;;12.43;6.72;;;;;;;15.54;61.20;95816.84;5025311;28;20204;-72
2022/05/19 05:56:38;;;;;;;7.93;5.03;;;;;;;16.07;61.82;95818.13;5030015;28;20663;-74
2022/05/19 05:59:05;;;;;;;8.75;5.35;;;;;;;17.52;57.16;95808.75;5027751;28;20741;-73
2022/05/19 06:01:32;;;;;;;8.23;5.10;;;;;;;18.61;56.98;95807.78;5021028;28;20220;-72
2022/05/19 06:03:59;;;;;;;11.88;5.85;;;;;;;19.40;51.18;95799.66;5033800;28;20223;-73
2022/05/19 06:06:26;;;;;;;12.45;5.35;;;;;;;20.64;49.80;95798.94;5033409;28;20232;-73
2022/05/19 06:08:53;;;;;;;6.88;5.32;;;;;;;21.14;50.00;95804.22;5031082;28;20204;-73
2022/05/19 06:11:20;;;;;;;13.52;5.55;;;;;;;21.51;48.14;95796.22;5023271;28;20224;-72
2022/05/19 06:13:50;;;;;;;10.23;7.43;;;;;;;23.10;42.25;95785.75;5019977;28;20224;-74
2022/05/19 06:16:17;;;;;;;13.93;5.72;;;;;;;21.93;43.91;95796.09;5033324;28;20595;-73
2022/05/19 06:18:44;;;;;;;8.75;5.47;;;;;;;21.73;45.01;95805.63;5033428;28;20201;-72
2022/05/19 06:21:11;;;;;;;9.13;6.25;;;;;;;22.04;43.78;95798.22;5033296;28;20216;-71
2022/05/19 06:23:38;;;;;;;11.93;7.95;;;;;;;22.59;43.21;95800.16;5020215;28;20224;-73
2022/05/19 06:26:06;;;;;;;14.15;9.07;;;;;;;23.63;41.73;95785.50;5032193;28;20350;-72
2022/05/19 06:28:33;;;;;;;11.15;8.38;;;;;;;25.39;38.36;95793.09;5031755;28;20219;-71
2022/05/19 06:31:02;;;;;;;10.30;8.23;;;;;;;24.35;39.12;95793.09;5030224;28;20232;-73
2022/05/19 06:33:30;;;;;;;10.70;8.38;;;;;;;24.03;39.80;95796.47;5032820;28;20236;-73
2022/05/19 06:35:56;;;;;;;12.02;8.98;;;;;;;22.79;40.66;95800.84;5028673;28;20189;-72
2022/05/19 06:38:23;;;;;;;12.23;8.88;;;;;;;23.84;40.43;95798.69;5032359;28;20683;-73
2022/05/19 06:40:50;;;;;;;12.25;9.23;;;;;;;23.76;39.70;95797.06;5032621;28;20204;-73
2022/05/19 06:43:19;;;;;;;11.77;9.00;;;;;;;22.89;40.76;95802.91;5036386;28;20207;-72
2022/05/19 06:45:46;;;;;;;11.63;8.50;;;;;;;21.75;41.89;95811.56;5039015;28;20236;-74
2022/05/19 06:48:14;;;;;;;11.10;8.48;;;;;;;20.00;47.14;95814.84;5033199;28;20346;-72
2022/05/19 06:50:41;;;;;;;13.15;8.80;;;;;;;20.00;46.82;95812.09;5019711;28;20604;-73
2022/05/19 06:53:08;;;;;;;9.30;7.90;;;;;;;21.04;45.49;95799.31;5019387;28;20222;-73
2022/05/19 06:55:37;;;;;;;15.90;8.50;;;;;;;22.86;41.67;95794.56;5032053;28;20212;-74
2022/05/19 06:58:05;;;;;;;7.85;6.63;;;;;;;20.94;43.35;95810.91;5032028;28;20319;-74
2022/05/19 07:00:33;;;;;;;8.77;6.05;;;;;;;20.62;44.61;95812.28;5019422;28;20252;-74
2022/05/19 07:03:01;;;;;;;8.45;5.93;;;;;;;22.46;40.78;95801.56;5033034;28;20216;-72
2022/05/19 07:05:36;;;;;;;8.65;5.95;;;;;;;22.18;41.63;95809.47;5032133;28;20216;-74
2022/05/19 07:08:04;;;;;;;6.75;3.53;;;;;;;24.01;37.19;95809.88;5026914;28;20196;-73
2022/05/19 07:10:31;;;;;;;6.55;4.50;;;;;;;23.85;36.61;95809.38;5026973;28;21428;-74
2022/05/19 07:12:59;;;;;;;5.53;3.75;;;;;;;21.75;37.98;95822.59;5024390;28;20219;-73
2022/05/19 07:15:27;;;;;;;5.15;3.80;;;;;;;21.80;39.52;95819.53;5026645;28;20251;-74
2022/05/19 07:17:54;;;;;;;7.72;3.80;;;;;;;21.63;40.06;95820.03;5026659;28;20244;-74
2022/05/19 07:23:24;;;;;;;5.82;3.90;;;;;;;21.80;38.94;95811.25;4983478;28;20241;-74
2022/05/19 07:25:53;;;;;;;4.20;3.80;;;;;;;22.27;39.79;95819.09;5012867;28;20315;-73
2022/05/19 07:28:22;;;;;;;8.95;2.92;;;;;;;21.53;37.79;95823.44;5032155;28;20700;-73
2022/05/19 07:30:49;;;;;;;8.68;4.07;;;;;;;21.15;40.10;95816.84;5031804;28;20216;-73
2022/05/19 07:33:16;;;;;;;7.75;2.97;;;;;;;21.96;37.98;95820.19;5019053;28;20204;-75
2022/05/19 07:35:46;;;;;;;5.57;4.07;;;;;;;21.92;37.77;95810.25;5022521;28;20201;-74
2022/05/19 07:38:14;;;;;;;5.82;3.97;;;;;;;21.90;37.79;95816.13;5029779;28;20247;-75
2022/05/19 07:40:43;;;;;;;5.28;3.33;;;;;;;22.25;37.50;95812.34;5032143;28;20255;-75
2022/05/19 07:45:55;;;;;;;6.70;3.20;;;;;;;21.51;39.09;95810.00;5050671;28;20602;-75
2022/05/19 07:48:21;;;;;;;4.57;3.10;;;;;;;20.90;38.78;95807.31;5031972;28;20255;-74
2022/05/19 07:50:48;;;;;;;3.75;2.80;;;;;;;20.41;39.35;95812.63;5018452;28;20208;-74
2022/05/19 07:53:15;;;;;;;3.50;2.90;;;;;;;20.06;39.87;95816.16;5031310;28;20196;-74
2022/05/19 07:55:44;;;;;;;7.03;3.25;;;;;;;20.98;40.04;95817.31;5018741;28;20225;-74
2022/05/19 07:58:11;;;;;;;4.35;3.13;;;;;;;20.78;37.97;95812.97;5031587;28;20234;-73
2022/05/19 08:00:38;;;;;;;5.95;2.92;;;;;;;21.50;37.98;95813.13;5031118;28;20200;-74
2022/05/19 08:03:05;;;;;;;4.18;3.03;;;;;;;20.86;39.96;95817.47;5031091;28;20204;-73
2022/05/19 08:05:33;;;;;;;5.43;2.72;;;;;;;19.37;42.54;95814.91;5031463;28;20290;-74
2022/05/19 08:08:00;;;;;;;5.97;3.20;;;;;;;18.92;41.85;95815.28;5031848;28;20216;-75
2022/05/19 08:10:27;;;;;;;4.93;2.60;;;;;;;20.42;39.21;95806.75;5031927;28;20219;-74
2022/05/19 08:15:46;;;;;;;4.68;3.00;;;;;;;19.10;41.21;95808.31;5031087;28;20218;-73
2022/05/19 08:18:14;;;;;;;5.43;3.00;;;;;;;18.64;42.53;95814.50;5031451;28;20200;-74
2022/05/19 08:20:43;;;;;;;4.53;3.00;;;;;;;18.71;40.78;95811.97;5031717;28;20196;-74
2022/05/19 08:23:14;;;;;;;6.57;2.53;;;;;;;19.21;39.90;95807.78;5031382;28;20215;-74
2022/05/19 08:25:41;;;;;;;7.93;2.80;;;;;;;20.23;38.23;95798.44;5018329;28;20200;-75
2022/05/19 08:28:09;;;;;;;4.20;2.40;;;;;;;20.88;34.70;95801.38;5031319;28;20231;-74
2022/05/19 08:30:36;;;;;;;3.47;1.75;;;;;;;20.58;36.35;95804.72;5024004;28;20201;-74
2022/05/19 08:33:06;;;;;;;3.15;1.83;;;;;;;20.77;36.07;95800.38;5026108;28;20211;-75
2022/05/19 08:35:34;;;;;;;1.52;1.10;;;;;;;19.84;31.08;95800.31;5031870;28;20228;-74
2022/05/19 08:38:01;;;;;;;0.80;0.73;;;;;;;20.39;30.42;95801.97;5031268;28;20204;-74
2022/05/19 08:40:28;;;;;;;1.13;0.82;;;;;;;20.55;32.49;95799.94;5031245;28;20211;-75
2022/05/19 08:42:59;;;;;;;3.53;1.30;;;;;;;20.20;33.23;95801.94;5030502;28;20204;-74
2022/05/19 08:45:32;;;;;;;3.05;1.50;;;;;;;20.78;33.89;95797.22;5040487;28;20232;-75
2022/05/19 08:48:05;;;;;;;5.00;1.90;;;;;;;20.93;32.78;95798.31;5030994;28;20212;-76
2022/05/19 08:50:40;;;;;;;2.33;1.60;;;;;;;21.30;36.01;95795.06;5019062;28;20197;-75
2022/05/19 08:53:11;;;;;;;5.57;1.50;;;;;;;20.64;32.22;95793.44;5030760;28;20211;-75
2022/05/19 08:55:40;;;;;;;3.05;1.38;;;;;;;20.75;33.87;95786.16;5030374;28;20230;-75
2022/05/19 08:58:19;;;;;;;2.35;1.00;;;;;;;19.72;32.77;95789.44;5023215;28;20228;-75
2022/05/19 09:00:53;;;;;;;4.00;1.30;;;;;;;19.66;32.37;95783.44;5024546;28;20558;-74
2022/05/19 09:03:25;;;;;;;1.38;1.10;;;;;;;19.87;33.73;95781.16;5021904;28;20196;-75
2022/05/19 09:06:10;;;;;;;2.38;1.35;;;;;;;19.21;33.64;95780.31;5017517;28;20250;-75
2022/05/19 09:08:49;;;;;;;3.42;1.10;;;;;;;18.80;34.11;95779.66;5016376;28;20233;-75
2022/05/19 09:11:18;;;;;;;2.50;1.17;;;;;;;19.10;33.04;95777.31;5020347;28;20206;-75
2022/05/19 09:13:53;;;;;;;1.77;1.00;;;;;;;19.14;33.51;95773.47;5017714;28;20229;-75
2022/05/19 09:16:25;;;;;;;4.50;1.58;;;;;;;19.33;34.04;95772.78;5019677;28;20255;-76
2022/05/19 09:18:59;;;;;;;4.40;1.95;;;;;;;19.27;34.13;95767.94;5023817;28;20193;-75
2022/05/19 09:21:27;;;;;;;5.45;1.48;;;;;;;18.97;35.01;95762.06;5023702;28;20224;-76
2022/05/19 09:23:54;;;;;;;2.30;1.13;;;;;;;19.08;35.54;95761.19;5023928;28;20626;-75
2022/05/19 09:26:47;;;;;;;1.17;1.05;;;;;;;18.26;35.12;95763.66;5023835;28;20236;-76
2022/05/19 09:29:17;;;;;;;1.83;1.00;;;;;;;17.97;34.35;95761.22;5020914;28;20215;-76
2022/05/19 09:31:49;;;;;;;2.08;1.00;;;;;;;18.63;35.75;95755.28;5026431;28;20571;-76
2022/05/19 09:34:17;;;;;;;2.40;1.30;;;;;;;19.25;33.95;95759.25;5022743;28;20243;-73
2022/05/19 09:37:00;;;;;;;3.25;1.20;;;;;;;18.69;36.61;95757.44;5013618;28;20209;-75
2022/05/19 09:39:33;;;;;;;1.80;1.10;;;;;;;18.18;35.04;95759.09;5015494;28;20193;-75
2022/05/19 09:42:05;;;;;;;1.27;0.95;;;;;;;18.60;36.82;95756.75;5034416;28;20554;-76
2022/05/19 09:44:34;;;;;;;1.27;1.13;;;;;;;18.43;36.62;95752.38;5048911;28;20362;-76
2022/05/19 09:47:15;;;;;;;2.30;1.48;;;;;;;18.72;34.22;95753.19;5044111;28;20706;-75
2022/05/19 09:49:44;;;;;;;2.05;1.50;;;;;;;18.22;34.41;95757.25;5029415;28;20201;-76
2022/05/19 09:52:19;;;;;;;1.88;1.35;;;;;;;18.63;34.79;95753.31;5014794;28;20291;-76
2022/05/19 09:54:52;;;;;;;1.83;1.58;;;;;;;19.21;33.57;95752.84;5021164;28;20219;-77
2022/05/19 09:57:26;;;;;;;2.47;1.70;;;;;;;18.94;35.12;95744.34;5034051;28;20310;-75
2022/05/19 09:59:55;;;;;;;3.03;1.33;;;;;;;19.40;34.58;95750.19;5034025;28;20196;-76
2022/05/19 10:02:32;;;;;;;1.73;1.15;;;;;;;19.79;35.46;95740.91;5020761;28;20239;-76
2022/05/19 10:05:01;;;;;;;2.95;1.40;;;;;;;19.59;33.48;95733.75;5023812;28;20530;-76
2022/05/19 10:07:36;;;;;;;1.38;1.15;;;;;;;19.72;35.84;95729.75;5031693;28;20236;-75
2022/05/19 10:10:16;;;;;;;2.08;1.80;;;;;;;19.83;34.10;95724.47;5033935;28;20195;-75
2022/05/19 10:12:47;;;;;;;1.60;1.05;;;;;;;19.27;34.74;95730.22;5021664;28;20200;-76
2022/05/19 10:15:18;;;;;;;2.80;1.70;;;;;;;19.86;35.33;95727.31;5032270;28;20204;-75
2022/05/19 10:17:59;;;;;;;2.33;1.30;;;;;;;20.65;33.26;95720.66;5022583;28;20599;-75
2022/05/19 10:20:29;;;;;;;2.13;1.55;;;;;;;21.13;33.71;95719.94;5033764;28;20227;-76
2022/05/19 10:23:17;;;;;;;5.28;1.30;;;;;;;21.16;33.92;95713.72;5022514;28;20197;-75
2022/05/19 10:26:12;;;;;;;2.55;1.52;;;;;;;20.24;34.80;95711.97;5021550;28;20251;-75
2022/05/19 10:31:52;;;;;;;2.65;1.70;;;;;;;20.02;34.85;95709.94;5033468;28;20199;-76
2022/05/19 10:34:42;;;;;;;1.67;1.17;;;;;;;20.36;34.59;95709.13;5022090;28;20216;-76
2022/05/19 10:37:24;;;;;;;2.10;1.58;;;;;;;20.73;33.21;95705.88;5021780;28;20691;-75
2022/05/19 10:40:08;;;;;;;2.38;1.42;;;;;;;20.72;33.50;95704.28;5033219;28;20203;-75
2022/05/19 10:42:46;;;;;;;1.48;1.38;;;;;;;20.93;32.90;95694.41;5033387;28;20207;-75
2022/05/19 10:45:27;;;;;;;3.40;1.50;;;;;;;20.82;34.57;95698.94;5021742;28;20228;-75
2022/05/19 10:48:25;;;;;;;5.38;1.65;;;;;;;20.98;33.20;95690.56;5029058;28;20228;-76
2022/05/19 10:50:57;;;;;;;1.88;1.30;;;;;;;21.46;33.29;95685.41;5026557;28;20256;-75
2022/05/19 10:53:54;;;;;;;1.70;1.20;;;;;;;21.40;31.40;95667.63;5021875;28;20220;-76
2022/05/19 10:56:35;;;;;;;2.38;1.42;;;;;;;21.16;33.80;95682.59;5020072;28;20193;-75
2022/05/19 10:59:16;;;;;;;2.00;1.23;;;;;;;21.43;33.07;95672.41;5019679;28;20204;-75
2022/05/19 11:01:54;;;;;;;2.90;1.10;;;;;;;21.03;33.51;95684.75;5033035;28;20197;-75
2022/05/19 11:04:50;;;;;;;2.33;1.40;;;;;;;20.99;32.95;95675.63;5027483;28;20240;-75
2022/05/19 11:07:44;;;;;;;3.45;1.50;;;;;;;21.14;33.98;95682.97;5028664;28;20227;-76
2022/05/19 11:10:27;;;;;;;3.88;1.45;;;;;;;20.96;33.90;95681.88;5032563;28;20231;-76
2022/05/19 11:13:03;;;;;;;1.50;1.20;;;;;;;20.54;32.63;95688.22;5020945;28;20228;-76
2022/05/19 11:15:38;;;;;;;3.40;1.45;;;;;;;20.95;33.66;95680.28;5029567;28;20197;-76
2022/05/19 11:18:12;;;;;;;2.78;1.40;;;;;;;21.15;34.47;95679.03;5022701;28;20223;-75
2022/05/19 11:20:59;;;;;;;2.55;1.55;;;;;;;20.79;32.61;95682.34;5032064;28;20203;-75
2022/05/19 11:23:37;;;;;;;6.05;1.38;;;;;;;21.38;32.79;95669.94;5031817;28;20228;-76
2022/05/19 11:26:25;;;;;;;1.85;1.42;;;;;;;21.32;34.26;95666.72;5022432;28;20540;-77
2022/05/19 11:29:17;;;;;;;2.75;1.50;;;;;;;21.33;33.01;95650.97;5019279;28;20222;-77
2022/05/19 11:31:50;;;;;;;1.75;1.65;;;;;;;21.75;31.98;95645.25;5018650;28;20221;-76
2022/05/19 11:34:25;;;;;;;2.90;1.25;;;;;;;22.37;30.31;95645.63;5021762;28;20675;-77
2022/05/19 11:36:57;;;;;;;2.08;1.40;;;;;;;22.60;30.02;95641.53;5030240;28;20196;-77
2022/05/19 11:39:35;;;;;;;2.35;1.30;;;;;;;22.34;30.93;95638.91;5031419;28;20197;-77
2022/05/19 11:42:18;;;;;;;3.95;1.52;;;;;;;21.71;30.33;95642.47;5024403;28;20189;-77
2022/05/19 11:44:46;;;;;;;2.55;1.77;;;;;;;20.66;31.81;95650.66;5040634;28;20192;-75
2022/05/19 11:55:12;;;;;;;2.00;1.45;;;;;;;20.75;31.32;95641.00;5031546;28;20247;-77
2022/05/19 11:55:48;;;;;;;1.60;1.20;;;;;;;21.55;30.86;95619.78;5025260;28;20247;-76
2022/05/19 11:58:21;;;;;;;2.65;1.50;;;;;;;21.41;31.12;95614.06;5020205;28;20630;-76
2022/05/19 12:00:55;;;;;;;1.30;1.20;;;;;;;21.27;32.57;95620.97;5017999;28;20239;-76
2022/05/19 12:03:29;;;;;;;2.58;1.60;;;;;;;21.32;31.65;95610.81;5021267;28;20585;-76
2022/05/19 12:06:00;;;;;;;3.53;1.40;;;;;;;22.01;31.09;95597.50;5025310;28;20193;-76
2022/05/19 12:08:32;;;;;;;2.63;1.40;;;;;;;22.40;30.74;95593.22;5024315;28;20598;-75
2022/05/19 12:11:14;;;;;;;5.13;1.58;;;;;;;22.25;30.96;95599.78;5017788;28;20197;-75